Terminal Aerodrome Forecast
Issued by NWS Atlanta, GA

Home | Current Version | Previous Version | Text Only | Print | Product List | Glossary On
Versions: 1 2 3 4 5 6 7 8 9 10 11 12 13 14 15 16 17 18 19 20 21 22 23 24 25
000
FTUS42 KFFC 270820 AAA
TAFCSG
TAF AMD
KCSG 270820Z 2708/2806 24003KT P6SM BKN010
     FM271000 00000KT 5SM BR BKN008
     FM271500 19006KT P6SM BKN035
     FM271800 22008KT P6SM BKN045
     FM272100 21007KT P6SM VCSH BKN050=

USA.gov is the U.S. government's official web portal to all federal, state and local government web resources and services.